Time;durP1;ratioP1;P1;durP2;ratioP2;P2;SDS_P1;SDS_P2;PMS_P1;PMS_P2;Temp;Humidity;BMP_temperature;BMP_pressure;BME280_temperature;BME280_humidity;BME280_pressure;Samples;Min_cycle;Max_cycle;Signal;HPM_P1;HPM_P2
2022/05/12 00:00:43;;;;;;;;;;;;;;;11.98;45.01;95160.63;4998640;28;19982;-66
2022/05/12 00:03:08;;;;;;;;;;;;;;;11.83;45.92;95150.06;5006228;28;20036;-66
2022/05/12 00:05:34;;;;;;;;;;;;;;;11.62;46.58;95158.97;5005044;28;20024;-66
2022/05/12 00:07:59;;;;;;;;;;;;;;;11.59;47.07;95157.53;5001641;28;20004;-66
2022/05/12 00:10:24;;;;;;;;;;;;;;;11.61;46.78;95165.31;4998826;28;19992;-66
2022/05/12 00:12:50;;;;;;;;;;;;;;;11.57;47.16;95170.25;4999107;28;19970;-66
2022/05/12 00:15:33;;;;;;;;;;;;;;;11.61;47.37;95176.81;4997147;28;20086;-66
2022/05/12 00:18:02;;;;;;;;;;;;;;;11.17;48.68;95177.94;5000851;28;20446;-66
2022/05/12 00:20:27;;;;;;;;;;;;;;;10.94;49.59;95202.88;5004070;28;20084;-66
2022/05/12 00:23:06;;;;;;;;;;;;;;;11.06;49.34;95209.38;5017063;28;20087;-66
2022/05/12 00:25:31;;;;;;;;;;;;;;;10.85;49.46;95224.31;5016990;28;19996;-66
2022/05/12 00:27:57;;;;;;;;;;;;;;;10.49;49.66;95249.13;5015701;28;20347;-66
2022/05/12 00:30:22;;;;;;;;;;;;;;;10.02;50.13;95277.75;5016317;28;20039;-66
2022/05/12 00:32:47;;;;;;;;;;;;;;;9.66;51.00;95305.84;5017329;28;20077;-66
2022/05/12 00:35:13;;;;;;;;;;;;;;;9.70;51.03;95269.94;5017473;28;20092;-66
2022/05/12 00:37:38;;;;;;;;;;;;;;;9.46;51.57;95291.22;5002881;28;20015;-66
2022/05/12 00:40:04;;;;;;;;;;;;;;;9.14;52.91;95263.06;5007237;28;19978;-67
2022/05/12 00:42:29;;;;;;;;;;;;;;;9.38;52.24;95283.31;5007307;28;20089;-66
2022/05/12 00:44:54;;;;;;;;;;;;;;;9.55;51.88;95277.84;5007878;28;20316;-67
2022/05/12 00:47:19;;;;;;;;;;;;;;;9.82;51.59;95279.13;5002185;28;19985;-66
2022/05/12 00:49:45;;;;;;;;;;;;;;;9.62;52.08;95278.78;5005181;28;19989;-67
2022/05/12 00:52:12;;;;;;;;;;;;;;;9.22;53.90;95294.91;5012309;28;19977;-66
2022/05/12 00:54:45;;;;;;;;;;;;;;;8.72;55.57;95287.22;5016261;28;20626;-66
2022/05/12 00:57:11;;;;;;;;;;;;;;;8.80;55.86;95292.47;5016939;28;19973;-66
2022/05/12 00:59:36;;;;;;;;;;;;;;;9.72;53.09;95294.50;5015970;28;19962;-66
2022/05/12 01:02:02;;;;;;;;;;;;;;;9.62;53.23;95297.41;5015904;28;20015;-67
2022/05/12 01:04:30;;;;;;;;;;;;;;;9.82;52.96;95303.03;5015299;28;20036;-66
2022/05/12 01:06:55;;;;;;;;;;;;;;;9.93;52.87;95304.41;5011572;28;20004;-67
2022/05/12 01:09:20;;;;;;;;;;;;;;;9.77;53.91;95308.09;5020339;28;19993;-66
2022/05/12 01:11:48;;;;;;;;;;;;;;;10.49;51.34;95310.34;5019294;28;21604;-67
2022/05/12 01:14:14;;;;;;;;;;;;;;;10.56;51.24;95303.28;5020402;28;20240;-67
2022/05/12 01:16:42;;;;;;;;;;;;;;;10.26;52.25;95305.94;5020369;28;19974;-67
2022/05/12 01:19:08;;;;;;;;;;;;;;;10.16;52.63;95302.75;5020762;28;20410;-67
2022/05/12 01:21:33;;;;;;;;;;;;;;;9.42;55.03;95310.38;5018388;28;19989;-67
2022/05/12 01:24:00;;;;;;;;;;;;;;;9.54;54.33;95314.25;5020710;28;19974;-66
2022/05/12 01:26:25;;;;;;;;;;;;;;;9.00;55.27;95318.63;5020195;28;20047;-67
2022/05/12 01:28:50;;;;;;;;;;;;;;;8.94;55.51;95319.28;5020505;28;20009;-66
2022/05/12 01:31:16;;;;;;;;;;;;;;;8.77;55.90;95319.38;5020252;28;20025;-67
2022/05/12 01:33:41;;;;;;;;;;;;;;;9.57;53.85;95321.88;5020191;28;20723;-67
2022/05/12 01:36:06;;;;;;;;;;;;;;;9.40;54.05;95323.00;5022474;28;20477;-66
2022/05/12 01:38:32;;;;;;;;;;;;;;;9.11;54.02;95317.38;5015790;28;19989;-67
2022/05/12 01:40:57;;;;;;;;;;;;;;;8.91;52.68;95322.31;5013391;28;19996;-67
2022/05/12 01:43:22;;;;;;;;;;;;;;;8.75;52.63;95341.78;5006768;28;20029;-66
2022/05/12 01:45:47;;;;;;;;;;;;;;;8.26;54.19;95328.53;5006583;28;19982;-66
2022/05/12 01:48:13;;;;;;;;;;;;;;;8.68;52.44;95328.38;5004786;28;20020;-67
2022/05/12 01:50:39;;;;;;;;;;;;;;;7.95;53.61;95331.91;5022237;28;20004;-66
2022/05/12 01:53:04;;;;;;;;;;;;;;;7.82;54.23;95336.91;5024234;28;19969;-66
2022/05/12 01:55:30;;;;;;;;;;;;;;;8.03;53.98;95339.03;5024538;28;20474;-67
2022/05/12 01:57:57;;;;;;;;;;;;;;;8.74;51.68;95346.25;5016421;28;19989;-67
2022/05/12 02:00:23;;;;;;;;;;;;;;;8.39;52.87;95337.78;5012982;28;20454;-67
2022/05/12 02:02:49;;;;;;;;;;;;;;;8.46;53.05;95349.34;5009542;28;20069;-66
2022/05/12 02:05:14;;;;;;;;;;;;;;;8.48;53.63;95365.09;5009074;28;20006;-66
2022/05/12 02:07:40;;;;;;;;;;;;;;;8.56;53.16;95360.59;5010444;28;19972;-66
2022/05/12 02:10:05;;;;;;;;;;;;;;;8.33;54.70;95362.34;5006378;28;20475;-66
2022/05/12 02:12:31;;;;;;;;;;;;;;;8.51;54.99;95367.44;5010381;28;19965;-66
2022/05/12 02:14:56;;;;;;;;;;;;;;;8.05;57.08;95367.03;5007498;28;20041;-66
2022/05/12 02:17:21;;;;;;;;;;;;;;;8.84;54.11;95369.94;5007843;28;19997;-66
2022/05/12 02:19:46;;;;;;;;;;;;;;;8.68;54.92;95370.84;5008016;28;19970;-65
2022/05/12 02:22:12;;;;;;;;;;;;;;;8.77;54.92;95371.66;5004207;28;20586;-63
2022/05/12 02:24:37;;;;;;;;;;;;;;;8.33;56.38;95375.59;5007193;28;19999;-66
2022/05/12 02:27:02;;;;;;;;;;;;;;;8.34;56.22;95382.56;5009059;28;19994;-66
2022/05/12 02:29:28;;;;;;;;;;;;;;;8.26;56.74;95381.56;5005943;28;20494;-62
2022/05/12 02:31:53;;;;;;;;;;;;;;;8.11;57.65;95380.59;5006456;28;20380;-67
2022/05/12 02:34:18;;;;;;;;;;;;;;;8.34;57.17;95403.78;5003852;28;20485;-66
2022/05/12 02:36:59;;;;;;;;;;;;;;;8.07;58.21;95385.44;5017987;28;19974;-66
2022/05/12 02:39:25;;;;;;;;;;;;;;;7.92;59.35;95407.31;5009981;28;19985;-66
2022/05/12 02:41:50;;;;;;;;;;;;;;;7.61;60.57;95405.28;5007517;28;20071;-66
2022/05/12 02:44:15;;;;;;;;;;;;;;;7.78;59.81;95403.50;5004656;28;19974;-66
2022/05/12 02:46:41;;;;;;;;;;;;;;;7.89;59.83;95418.25;5002623;28;20036;-66
2022/05/12 02:49:06;;;;;;;;;;;;;;;7.85;60.28;95416.91;5015689;28;19977;-66
2022/05/12 02:51:31;;;;;;;;;;;;;;;8.09;59.20;95414.44;5019011;28;20005;-66
2022/05/12 02:53:56;;;;;;;;;;;;;;;8.16;59.19;95423.38;5022836;28;20398;-66
2022/05/12 02:56:22;;;;;;;;;;;;;;;8.10;59.44;95426.69;5023585;28;20431;-66
2022/05/12 02:58:47;;;;;;;;;;;;;;;8.32;58.75;95427.81;5022984;28;19989;-66
2022/05/12 03:01:12;;;;;;;;;;;;;;;8.20;59.02;95431.81;5022663;28;19992;-66
2022/05/12 03:03:37;;;;;;;;;;;;;;;8.28;58.71;95437.09;5021487;28;20437;-66
2022/05/12 03:06:03;;;;;;;;;;;;;;;8.49;58.02;95425.97;5018087;28;20016;-66
2022/05/12 03:08:28;;;;;;;;;;;;;;;8.42;58.21;95432.94;5017529;28;20253;-66
2022/05/12 03:10:53;;;;;;;;;;;;;;;8.43;58.04;95430.13;5022314;28;19988;-66
2022/05/12 03:13:19;;;;;;;;;;;;;;;8.65;57.90;95442.84;5012387;28;20036;-66
2022/05/12 03:15:44;;;;;;;;;;;;;;;8.62;57.14;95437.88;5020249;28;19965;-66
2022/05/12 03:18:09;;;;;;;;;;;;;;;8.17;58.17;95428.50;5007084;28;20083;-66
2022/05/12 03:20:35;;;;;;;;;;;;;;;8.18;57.52;95439.94;5014888;28;20006;-66
2022/05/12 03:23:00;;;;;;;;;;;;;;;8.00;58.56;95435.66;5022505;28;19994;-66
2022/05/12 03:25:25;;;;;;;;;;;;;;;7.92;58.72;95436.47;5021140;28;20013;-66
2022/05/12 03:27:50;;;;;;;;;;;;;;;8.20;58.24;95448.56;5022976;28;19973;-66
2022/05/12 03:30:17;;;;;;;;;;;;;;;7.81;58.74;95441.25;5022258;28;19997;-66
2022/05/12 03:32:42;;;;;;;;;;;;;;;8.13;58.11;95437.78;5022686;28;19997;-66
2022/05/12 03:35:08;;;;;;;;;;;;;;;7.89;58.60;95443.94;5022623;28;20043;-66
2022/05/12 03:37:33;;;;;;;;;;;;;;;8.50;56.71;95450.69;5022266;28;20538;-66
2022/05/12 03:39:58;;;;;;;;;;;;;;;8.51;56.77;95450.50;5010381;28;19966;-66
2022/05/12 03:42:24;;;;;;;;;;;;;;;8.73;56.55;95456.09;5022499;28;19989;-67
2022/05/12 03:44:54;;;;;;;;;;;;;;;8.78;55.81;95460.91;5020688;28;19973;-66
2022/05/12 03:47:24;;;;;;;;;;;;;;;8.88;55.91;95469.47;5017838;28;19990;-66
2022/05/12 03:49:50;;;;;;;;;;;;;;;9.05;55.48;95477.44;5015410;28;19997;-66
2022/05/12 03:52:15;;;;;;;;;;;;;;;8.63;56.61;95474.84;5022343;28;20525;-66
2022/05/12 03:54:41;;;;;;;;;;;;;;;8.24;57.90;95483.53;5021783;28;20009;-66
2022/05/12 03:57:06;;;;;;;;;;;;;;;8.65;56.73;95482.66;5022151;28;20084;-66
2022/05/12 03:59:32;;;;;;;;;;;;;;;8.46;56.86;95494.47;5011859;28;19969;-66
2022/05/12 04:01:57;;;;;;;;;;;;;;;8.17;58.36;95497.44;5017421;28;20479;-66
2022/05/12 04:04:23;;;;;;;;;;;;;;;8.28;57.70;95493.66;5019502;28;20023;-66
2022/05/12 04:06:48;;;;;;;;;;;;;;;8.65;57.14;95490.63;5019928;28;19985;-66
2022/05/12 04:09:13;;;;;;;;;;;;;;;8.50;57.17;95504.56;5004649;28;20491;-66
2022/05/12 04:11:38;;;;;;;;;;;;;;;8.52;57.48;95501.75;5020703;28;19976;-66
2022/05/12 04:14:07;;;;;;;;;;;;;;;8.78;56.08;95500.72;5020456;28;20402;-66
2022/05/12 04:16:32;;;;;;;;;;;;;;;8.53;57.40;95511.34;5009351;28;20043;-66
2022/05/12 04:18:58;;;;;;;;;;;;;;;8.28;57.75;95516.69;5021971;28;20008;-66
2022/05/12 04:21:23;;;;;;;;;;;;;;;8.50;57.10;95514.38;5005349;28;19999;-66
2022/05/12 04:23:48;;;;;;;;;;;;;;;8.19;57.65;95526.44;5009254;28;20249;-66
2022/05/12 04:26:14;;;;;;;;;;;;;;;8.16;58.36;95526.81;5013425;28;20032;-66
2022/05/12 04:28:39;;;;;;;;;;;;;;;8.62;56.76;95518.31;5020272;28;19973;-66
2022/05/12 04:31:04;;;;;;;;;;;;;;;8.10;58.66;95524.81;5008579;28;19989;-66
2022/05/12 04:36:14;;;;;;;;;;;;;;;8.33;58.21;95540.06;5021808;28;20115;-66
2022/05/12 04:38:39;;;;;;;;;;;;;;;8.56;57.56;95542.88;5004418;28;20703;-66
2022/05/12 04:41:04;;;;;;;;;;;;;;;7.54;59.97;95558.78;5006913;28;19970;-66
2022/05/12 04:43:29;;;;;;;;;;;;;;;7.17;60.90;95556.47;5022029;28;19966;-65
2022/05/12 04:45:55;;;;;;;;;;;;;;;7.37;60.04;95557.03;5012133;28;20506;-66
2022/05/12 04:48:20;;;;;;;;;;;;;;;7.69;59.34;95563.47;5021427;28;19966;-66
2022/05/12 04:50:45;;;;;;;;;;;;;;;8.04;58.43;95568.72;5019730;28;19990;-66
2022/05/12 04:53:10;;;;;;;;;;;;;;;7.41;59.91;95571.63;5014511;28;19977;-66
2022/05/12 04:55:36;;;;;;;;;;;;;;;7.64;59.25;95579.84;5010508;28;20047;-66
2022/05/12 04:58:01;;;;;;;;;;;;;;;8.23;57.68;95582.66;5021472;28;20639;-66
2022/05/12 05:00:31;;;;;;;;;;;;;;;8.33;57.36;95585.97;5015871;28;19996;-67
2022/05/12 05:02:57;;;;;;;;;;;;;;;8.22;57.23;95595.09;5006449;28;20580;-67
2022/05/12 05:05:22;;;;;;;;;;;;;;;8.47;56.12;95597.75;5019702;28;19993;-67
2022/05/12 05:07:47;;;;;;;;;;;;;;;8.16;57.21;95604.53;5018464;28;20415;-67
2022/05/12 05:10:13;;;;;;;;;;;;;;;8.33;56.63;95603.72;5012897;28;19993;-67
2022/05/12 05:12:39;;;;;;;;;;;;;;;8.37;56.60;95610.34;5019876;28;19969;-67
2022/05/12 05:15:05;;;;;;;;;;;;;;;8.68;54.68;95607.06;5003340;28;19996;-67
2022/05/12 05:17:30;;;;;;;;;;;;;;;8.56;53.85;95612.69;5009575;28;20362;-67
2022/05/12 05:19:55;;;;;;;;;;;;;;;8.97;53.30;95619.00;5015730;28;20450;-67
2022/05/12 05:22:20;;;;;;;;;;;;;;;8.42;54.58;95618.66;5014185;28;20020;-67
2022/05/12 05:24:46;;;;;;;;;;;;;;;8.69;54.34;95620.16;5011558;28;20342;-67
2022/05/12 05:27:11;;;;;;;;;;;;;;;8.79;52.67;95624.47;5015367;28;20031;-65
2022/05/12 05:29:41;;;;;;;;;;;;;;;8.71;53.25;95625.31;5018724;28;19989;-64
2022/05/12 05:32:09;;;;;;;;;;;;;;;8.42;54.17;95624.78;5011100;28;20008;-67
2022/05/12 05:34:34;;;;;;;;;;;;;;;8.28;54.18;95631.56;5019226;28;19994;-67
2022/05/12 05:36:59;;;;;;;;;;;;;;;8.33;53.95;95635.56;5019998;28;20583;-68
2022/05/12 05:39:25;;;;;;;;;;;;;;;8.71;52.63;95635.94;5020106;28;20361;-67
2022/05/12 05:41:51;;;;;;;;;;;;;;;8.79;52.16;95646.53;5005599;28;20024;-67
2022/05/12 05:44:16;;;;;;;;;;;;;;;8.43;52.51;95652.97;5017941;28;19978;-67
2022/05/12 05:46:42;;;;;;;;;;;;;;;8.34;52.53;95655.78;5001612;28;20064;-67
2022/05/12 05:49:07;;;;;;;;;;;;;;;7.91;54.30;95656.66;5019061;28;20406;-67
2022/05/12 05:54:16;;;;;;;;;;;;;;;7.86;54.69;95662.44;5011925;28;20050;-68
2022/05/12 05:56:42;;;;;;;;;;;;;;;8.28;53.65;95671.38;5014275;28;19978;-68
2022/05/12 05:59:08;;;;;;;;;;;;;;;8.37;52.83;95677.50;5019642;28;20138;-67
2022/05/12 06:01:33;;;;;;;;;;;;;;;8.49;53.76;95679.84;5021264;28;20462;-67
2022/05/12 06:03:58;;;;;;;;;;;;;;;8.52;52.98;95690.97;5024559;28;20461;-68
2022/05/12 06:06:25;;;;;;;;;;;;;;;8.71;51.50;95691.66;5022333;28;19993;-67
2022/05/12 06:08:50;;;;;;;;;;;;;;;9.20;50.78;95695.34;5022660;28;19976;-67
2022/05/12 06:11:15;;;;;;;;;;;;;;;9.70;49.87;95688.09;5016737;28;19989;-67
2022/05/12 06:13:41;;;;;;;;;;;;;;;10.55;47.69;95700.91;5020302;28;20016;-68
2022/05/12 06:16:06;;;;;;;;;;;;;;;10.60;48.76;95693.22;5020904;28;19981;-68
2022/05/12 06:18:31;;;;;;;;;;;;;;;9.87;47.49;95709.34;5013038;28;19990;-67
2022/05/12 06:20:56;;;;;;;;;;;;;;;9.86;48.18;95705.00;5020471;28;19977;-67
2022/05/12 06:23:22;;;;;;;;;;;;;;;9.76;48.83;95702.53;5021880;28;19987;-67
2022/05/12 06:25:47;;;;;;;;;;;;;;;9.24;49.27;95712.59;5007394;28;20470;-67
2022/05/12 06:28:12;;;;;;;;;;;;;;;8.99;50.32;95714.44;5018875;28;19985;-67
2022/05/12 06:30:38;;;;;;;;;;;;;;;9.28;49.45;95719.25;5020615;28;20031;-68
2022/05/12 06:33:04;;;;;;;;;;;;;;;8.82;49.53;95715.25;5017677;28;19994;-68
2022/05/12 06:35:29;;;;;;;;;;;;;;;9.04;48.94;95718.25;5022250;28;19989;-67
2022/05/12 06:37:54;;;;;;;;;;;;;;;9.54;49.17;95714.72;5013269;28;20063;-67
2022/05/12 06:40:19;;;;;;;;;;;;;;;9.35;48.63;95722.06;5016321;28;20308;-67
2022/05/12 06:42:45;;;;;;;;;;;;;;;9.39;47.05;95725.22;5014593;28;19993;-68
2022/05/12 06:45:10;;;;;;;;;;;;;;;9.37;46.34;95727.19;5015933;28;20031;-68
2022/05/12 06:47:36;;;;;;;;;;;;;;;9.28;46.00;95729.88;5019566;28;19960;-68
2022/05/12 06:50:03;;;;;;;;;;;;;;;8.81;47.31;95740.09;5019793;28;20375;-68
2022/05/12 06:52:28;;;;;;;;;;;;;;;9.17;46.50;95738.16;5018852;28;20083;-67
2022/05/12 06:54:54;;;;;;;;;;;;;;;9.56;45.50;95744.63;5010767;28;20012;-68
2022/05/12 06:57:21;;;;;;;;;;;;;;;9.84;43.34;95741.59;5011458;28;19993;-67
2022/05/12 06:59:46;;;;;;;;;;;;;;;9.84;45.87;95736.28;5019024;28;19973;-68
2022/05/12 07:02:11;;;;;;;;;;;;;;;10.32;42.88;95738.13;5018414;28;20617;-68
2022/05/12 07:04:37;;;;;;;;;;;;;;;9.70;39.68;95737.81;5014031;28;20563;-67
2022/05/12 07:07:02;;;;;;;;;;;;;;;10.04;39.44;95744.69;5012224;28;19993;-68
2022/05/12 07:09:29;;;;;;;;;;;;;;;10.11;38.61;95750.19;5011313;28;19994;-68
2022/05/12 07:11:54;;;;;;;;;;;;;;;9.58;40.58;95746.13;5011232;28;19992;-67
2022/05/12 07:14:21;;;;;;;;;;;;;;;9.89;41.39;95744.56;5018255;28;20478;-67
2022/05/12 07:16:46;;;;;;;;;;;;;;;9.56;43.58;95747.28;5011031;28;20004;-68
2022/05/12 07:19:14;;;;;;;;;;;;;;;9.74;43.65;95748.91;5018343;28;20092;-68
2022/05/12 07:27:08;;;;;;;;;;;;;;;10.21;43.39;95760.63;5004327;28;20406;-67
2022/05/12 07:29:34;;;;;;;;;;;;;;;10.79;42.10;95767.50;4999618;28;19986;-68
2022/05/12 07:32:00;;;;;;;;;;;;;;;10.64;41.80;95762.91;5009917;28;20310;-75
2022/05/12 07:34:26;;;;;;;;;;;;;;;11.12;41.18;95770.00;5001293;28;20004;-75
2022/05/12 07:36:51;;;;;;;;;;;;;;;11.39;40.15;95771.25;5012356;28;19969;-75
2022/05/12 07:39:17;;;;;;;;;;;;;;;12.00;38.67;95771.38;4991205;28;19990;-75
2022/05/12 07:41:42;;;;;;;;;;;;;;;11.58;38.17;95777.09;5002546;28;20119;-75
2022/05/12 07:44:09;;;;;;;;;;;;;;;12.56;37.08;95770.06;5008509;28;20071;-76
2022/05/12 07:46:35;;;;;;;;;;;;;;;12.66;34.89;95767.94;5001695;28;20076;-75
2022/05/12 07:49:00;;;;;;;;;;;;;;;12.70;34.77;95772.88;4985961;28;19964;-75
2022/05/12 07:51:25;;;;;;;;;;;;;;;13.11;34.64;95771.50;4999783;28;19972;-75
2022/05/12 07:53:50;;;;;;;;;;;;;;;13.17;35.38;95771.59;5005507;28;20489;-75
2022/05/12 07:56:17;;;;;;;;;;;;;;;13.33;34.70;95783.06;5010899;28;20063;-75
2022/05/12 07:58:42;;;;;;;;;;;;;;;12.96;35.01;95784.91;5002253;28;19982;-75
2022/05/12 08:01:08;;;;;;;;;;;;;;;13.55;34.65;95783.03;5004954;28;19989;-75
2022/05/12 08:03:34;;;;;;;;;;;;;;;13.39;34.91;95790.28;5005415;28;19958;-75
2022/05/12 08:06:02;;;;;;;;;;;;;;;12.99;35.58;95785.38;5001406;28;20087;-75
2022/05/12 08:08:28;;;;;;;;;;;;;;;13.44;36.25;95784.38;5012084;28;19963;-75
2022/05/12 08:10:54;;;;;;;;;;;;;;;13.74;34.99;95789.56;5007416;28;20564;-75
2022/05/12 08:13:19;;;;;;;;;;;;;;;13.69;33.54;95800.84;5006082;28;20000;-75
2022/05/12 08:15:45;;;;;;;;;;;;;;;13.50;33.57;95809.53;5004834;28;20114;-75
2022/05/12 08:18:11;;;;;;;;;;;;;;;13.76;33.50;95802.72;5008858;28;19989;-75
2022/05/12 08:20:36;;;;;;;;;;;;;;;14.01;32.76;95811.19;5017503;28;20450;-75
2022/05/12 08:23:01;;;;;;;;;;;;;;;13.90;33.27;95811.75;4999193;28;20496;-75
2022/05/12 08:25:26;;;;;;;;;;;;;;;14.49;33.31;95803.44;5016511;28;19980;-76
2022/05/12 08:27:52;;;;;;;;;;;;;;;14.46;32.50;95813.50;5016077;28;20550;-76
2022/05/12 08:30:17;;;;;;;;;;;;;;;14.41;32.11;95821.31;5008356;28;20661;-76
2022/05/12 08:32:43;;;;;;;;;;;;;;;13.94;33.55;95823.72;5028597;28;20004;-75
2022/05/12 08:35:08;;;;;;;;;;;;;;;13.25;33.78;95832.13;5009995;28;19998;-75
2022/05/12 08:37:33;;;;;;;;;;;;;;;13.79;33.90;95829.09;5016023;28;19989;-76
2022/05/12 08:39:58;;;;;;;;;;;;;;;14.04;32.89;95831.41;5013581;28;19982;-76
2022/05/12 08:42:34;;;;;;;;;;;;;;;14.02;32.77;95834.28;5015270;28;20493;-76
2022/05/12 08:44:59;;;;;;;;;;;;;;;13.94;32.52;95823.72;5015125;28;20056;-75
2022/05/12 08:47:34;;;;;;;;;;;;;;;13.87;32.37;95836.97;5015481;28;19970;-76
2022/05/12 08:49:59;;;;;;;;;;;;;;;14.00;31.99;95836.28;5003053;28;19982;-75
2022/05/12 08:52:28;;;;;;;;;;;;;;;14.95;31.54;95836.84;5012342;28;19989;-75
2022/05/12 08:54:55;;;;;;;;;;;;;;;15.51;30.73;95848.34;5015771;28;19994;-75
2022/05/12 08:57:27;;;;;;;;;;;;;;;14.96;31.92;95852.72;5026636;28;19997;-75
2022/05/12 08:59:53;;;;;;;;;;;;;;;15.19;31.48;95848.88;5016320;28;20376;-74
2022/05/12 09:02:35;;;;;;;;;;;;;;;14.84;31.61;95854.31;4995285;28;20368;-75
2022/05/12 09:05:06;;;;;;;;;;;;;;;15.03;32.54;95849.25;5009969;28;19966;-74
2022/05/12 09:07:34;;;;;;;;;;;;;;;14.81;31.62;95854.72;5013654;28;19955;-75
2022/05/12 09:09:59;;;;;;;;;;;;;;;15.12;30.96;95842.69;5006228;28;20398;-75
2022/05/12 09:12:32;;;;;;;;;;;;;;;15.35;30.40;95841.50;5004830;28;20026;-75
2022/05/12 09:15:02;;;;;;;;;;;;;;;15.86;29.65;95853.56;5015713;28;20037;-75
2022/05/12 09:17:29;;;;;;;;;;;;;;;15.54;30.21;95847.13;5003961;28;20472;-75
2022/05/12 09:19:55;;;;;;;;;;;;;;;14.61;32.55;95847.38;5016404;28;20060;-75
2022/05/12 09:22:24;;;;;;;;;;;;;;;14.87;32.14;95845.91;5013130;28;19990;-75
2022/05/12 09:24:49;;;;;;;;;;;;;;;15.58;30.03;95851.06;5006784;28;19964;-75
2022/05/12 09:27:15;;;;;;;;;;;;;;;15.70;30.17;95844.06;5013038;28;19984;-75
2022/05/12 09:29:44;;;;;;;;;;;;;;;15.40;30.18;95846.25;5015095;28;20114;-74
2022/05/12 09:32:09;;;;;;;;;;;;;;;16.00;29.33;95843.66;5017055;28;19999;-74
2022/05/12 09:34:36;;;;;;;;;;;;;;;15.34;28.71;95854.06;5014432;28;20617;-65
2022/05/12 09:37:13;;;;;;;;;;;;;;;14.69;29.94;95849.91;5007887;28;20020;-66
2022/05/12 09:39:40;;;;;;;;;;;;;;;13.93;31.38;95848.78;5014863;28;20095;-65
2022/05/12 09:42:06;;;;;;;;;;;;;;;13.42;31.58;95851.41;5020007;28;20437;-65
2022/05/12 09:44:31;;;;;;;;;;;;;;;14.86;29.81;95838.88;5009012;28;20001;-64
2022/05/12 09:47:10;;;;;;;;;;;;;;;14.92;29.71;95832.72;5017507;28;20400;-66
2022/05/12 09:49:41;;;;;;;;;;;;;;;16.49;27.78;95829.97;5010274;28;19976;-65
2022/05/12 09:52:27;;;;;;;;;;;;;;;15.68;28.46;95842.63;5005670;28;20408;-65
2022/05/12 09:55:11;;;;;;;;;;;;;;;15.87;27.87;95835.59;5018895;28;20503;-65
2022/05/12 09:57:36;;;;;;;;;;;;;;;15.65;29.75;95827.75;5005731;28;19980;-65
2022/05/12 10:00:03;;;;;;;;;;;;;;;15.43;29.25;95827.91;5031513;28;20448;-76
2022/05/12 10:08:03;;;;;;;;;;;;;;;16.51;27.58;95821.69;5016930;28;20012;-75
2022/05/12 10:10:30;;;;;;;;;;;;;;;16.58;28.00;95811.75;5018081;28;19982;-75
2022/05/12 10:12:57;;;;;;;;;;;;;;;17.04;28.01;95811.78;5017023;28;20385;-75
2022/05/12 10:15:26;;;;;;;;;;;;;;;16.36;29.90;95816.56;5017988;28;20269;-75
2022/05/12 10:17:56;;;;;;;;;;;;;;;16.84;28.71;95811.88;5005003;28;19977;-75
2022/05/12 10:20:22;;;;;;;;;;;;;;;15.94;30.30;95817.63;5035406;28;19953;-76
2022/05/12 10:23:06;;;;;;;;;;;;;;;15.58;30.51;95813.50;5009616;28;19987;-75
2022/05/12 10:25:57;;;;;;;;;;;;;;;15.12;29.63;95831.94;5014332;28;19983;-75
2022/05/12 10:28:34;;;;;;;;;;;;;;;15.68;28.21;95821.97;5015594;28;20324;-75
2022/05/12 10:31:06;;;;;;;;;;;;;;;15.83;28.17;95820.94;5010021;28;20173;-75
2022/05/12 10:33:43;;;;;;;;;;;;;;;15.36;30.83;95827.06;5018150;28;20044;-75
2022/05/12 10:36:27;;;;;;;;;;;;;;;15.32;30.56;95826.66;5020177;28;20026;-76
2022/05/12 10:39:02;;;;;;;;;;;;;;;14.72;33.22;95822.72;5020071;28;19994;-75
2022/05/12 10:41:29;;;;;;;;;;;;;;;15.39;30.15;95823.97;5018779;28;20025;-75
2022/05/12 10:43:55;;;;;;;;;;;;;;;15.97;31.34;95819.91;5018141;28;19964;-75
2022/05/12 10:46:39;;;;;;;;;;;;;;;15.59;31.46;95820.50;5019309;28;20419;-75
2022/05/12 10:49:10;;;;;;;;;;;;;;;15.82;29.93;95819.28;5008612;28;20003;-75
2022/05/12 10:51:55;;;;;;;;;;;;;;;15.46;30.06;95815.94;5018862;28;20008;-75
2022/05/12 10:54:30;;;;;;;;;;;;;;;15.84;29.44;95828.78;5015724;28;20438;-76
2022/05/12 10:56:55;;;;;;;;;;;;;;;15.58;29.12;95814.34;5005354;28;19954;-75
2022/05/12 10:59:25;;;;;;;;;;;;;;;16.49;28.13;95811.16;5018018;28;20540;-75
2022/05/12 11:02:06;;;;;;;;;;;;;;;16.60;27.96;95806.16;5015097;28;19987;-75
2022/05/12 11:04:32;;;;;;;;;;;;;;;15.84;28.34;95810.00;5019341;28;19960;-76
2022/05/12 11:06:58;;;;;;;;;;;;;;;16.91;27.50;95801.91;5016762;28;19973;-76
2022/05/12 11:09:36;;;;;;;;;;;;;;;16.48;27.73;95816.75;5016915;28;20082;-75
2022/05/12 11:12:04;;;;;;;;;;;;;;;16.56;28.22;95819.22;5008068;28;19955;-74
2022/05/12 11:14:33;;;;;;;;;;;;;;;16.71;27.83;95805.50;5012457;28;19986;-74
2022/05/12 11:17:07;;;;;;;;;;;;;;;17.19;27.20;95791.84;5006573;28;19951;-75
2022/05/12 11:19:33;;;;;;;;;;;;;;;16.84;28.22;95806.50;5018112;28;19959;-74
2022/05/12 11:21:58;;;;;;;;;;;;;;;17.06;26.42;95798.94;5017636;28;20006;-74
2022/05/12 11:24:32;;;;;;;;;;;;;;;18.01;26.80;95796.44;5021411;28;19958;-73
2022/05/12 11:26:58;;;;;;;;;;;;;;;18.53;25.38;95783.69;5015939;28;19967;-72
2022/05/12 11:29:43;;;;;;;;;;;;;;;18.75;25.28;95800.25;5018617;28;19996;-71
2022/05/12 11:32:12;;;;;;;;;;;;;;;18.02;26.40;95800.78;5016717;28;20470;-73
2022/05/12 11:34:37;;;;;;;;;;;;;;;18.05;25.39;95791.44;5001436;28;19988;-71
2022/05/12 11:37:21;;;;;;;;;;;;;;;17.44;26.40;95797.28;5015467;28;19959;-72
2022/05/12 11:39:48;;;;;;;;;;;;;;;17.40;27.12;95804.97;5016570;28;19950;-72
2022/05/12 11:42:14;;;;;;;;;;;;;;;17.58;27.04;95797.19;5017580;28;19979;-72
2022/05/12 11:44:59;;;;;;;;;;;;;;;18.28;25.93;95790.81;5008618;28;19962;-72
2022/05/12 11:47:40;;;;;;;;;;;;;;;18.11;25.98;95797.81;5017281;28;20440;-73
2022/05/12 11:50:17;;;;;;;;;;;;;;;19.20;24.33;95779.34;5015685;28;20501;-73
2022/05/12 11:52:59;;;;;;;;;;;;;;;19.48;24.68;95788.75;5016736;28;19947;-73
2022/05/12 11:55:29;;;;;;;;;;;;;;;19.24;24.91;95787.81;5016817;28;19974;-74
2022/05/12 11:57:58;;;;;;;;;;;;;;;19.81;23.64;95787.38;5008499;28;20512;-73
2022/05/12 12:00:36;;;;;;;;;;;;;;;19.15;24.74;95787.31;5029853;28;19999;-73
2022/05/12 12:03:19;;;;;;;;;;;;;;;18.81;24.47;95799.38;5016029;28;19971;-73
2022/05/12 12:05:48;;;;;;;;;;;;;;;18.26;25.13;95787.50;5016084;28;19969;-68
2022/05/12 12:08:32;;;;;;;;;;;;;;;18.86;23.80;95792.47;5011674;28;19950;-67
2022/05/12 12:11:17;;;;;;;;;;;;;;;19.57;23.24;95783.81;5005527;28;19966;-67
2022/05/12 12:13:46;;;;;;;;;;;;;;;20.59;21.96;95782.88;5017183;28;20021;-67
2022/05/12 12:16:13;;;;;;;;;;;;;;;20.64;22.28;95780.31;5017786;28;19941;-67
2022/05/12 12:18:38;;;;;;;;;;;;;;;20.74;22.80;95785.13;5015514;28;19947;-67
2022/05/12 12:21:22;;;;;;;;;;;;;;;21.11;21.85;95776.63;5017325;28;19966;-67
2022/05/12 12:23:58;;;;;;;;;;;;;;;20.39;23.50;95791.41;5005519;28;19946;-67
2022/05/12 12:26:32;;;;;;;;;;;;;;;20.76;23.03;95768.66;5016065;28;20037;-67
2022/05/12 12:28:58;;;;;;;;;;;;;;;19.77;24.19;95779.97;5006450;28;20398;-67
2022/05/12 12:31:37;;;;;;;;;;;;;;;19.91;22.93;95767.03;5016984;28;20102;-67
2022/05/12 12:34:11;;;;;;;;;;;;;;;20.50;22.64;95768.94;5017474;28;20322;-67
2022/05/12 12:36:36;;;;;;;;;;;;;;;21.28;23.36;95762.31;5017609;28;20003;-67
2022/05/12 12:39:06;;;;;;;;;;;;;;;20.55;23.56;95771.72;5016823;28;19956;-67
2022/05/12 12:41:33;;;;;;;;;;;;;;;21.74;22.61;95769.59;5015329;28;20013;-67
2022/05/12 12:44:05;;;;;;;;;;;;;;;21.77;21.37;95779.94;5017779;28;19960;-66
2022/05/12 12:46:31;;;;;;;;;;;;;;;21.08;21.78;95781.72;5005085;28;19966;-67
2022/05/12 12:49:01;;;;;;;;;;;;;;;20.52;22.46;95766.78;5016662;28;20087;-66
2022/05/12 12:51:30;;;;;;;;;;;;;;;21.92;21.11;95770.44;5015842;28;20404;-67
2022/05/12 12:56:41;;;;;;;;;;;;;;;21.24;21.04;95775.50;5017636;28;20026;-67
2022/05/12 12:59:13;;;;;;;;;;;;;;;20.84;21.55;95760.97;5015197;28;20171;-69
2022/05/12 13:01:44;;;;;;;;;;;;;;;21.78;23.05;95765.31;5010278;28;19922;-69
2022/05/12 13:04:09;;;;;;;;;;;;;;;23.23;19.99;95752.84;5013263;28;19992;-69
2022/05/12 13:06:36;;;;;;;;;;;;;;;23.86;18.96;95759.63;5019651;28;19921;-69
2022/05/12 13:09:25;;;;;;;;;;;;;;;23.66;19.46;95766.53;5009000;28;19956;-68
2022/05/12 13:11:51;;;;;;;;;;;;;;;23.76;18.51;95762.31;5010274;28;20564;-68
2022/05/12 13:14:16;;;;;;;;;;;;;;;23.78;18.55;95754.69;5017541;28;20086;-68